Time;durP1;ratioP1;P1;durP2;ratioP2;P2;SDS_P1;SDS_P2;PMS_P1;PMS_P2;Temp;Humidity;BMP_temperature;BMP_pressure;BME280_temperature;BME280_humidity;BME280_pressure;Samples;Min_cycle;Max_cycle;Signal;HPM_P1;HPM_P2
2022/08/20 00:01:06;;;;;;;;;;;;;;;;;;2216000;66;1194;-55
2022/08/20 00:03:40;;;;;;;;;;;;;;;;;;2216210;58;1776;-54
2022/08/20 00:06:14;;;;;;;;;;;;;;;;;;2216642;66;1216;-55
2022/08/20 00:08:50;;;;;;;;;;;;;;;;;;2215932;66;1191;-54
2022/08/20 00:11:24;;;;;;;;;;;;;;;;;;2216662;58;1569;-54
2022/08/20 00:13:59;;;;;;;;;;;;;;;;;;2215684;66;1126;-54
2022/08/20 00:16:34;;;;;;;;;;;;;;;;;;2216501;66;1122;-54
2022/08/20 00:19:08;;;;;;;;;;;;;;;;;;2216270;66;1937;-54
2022/08/20 00:21:41;;;;;;;;;;;;;;;;;;2215898;66;1227;-54
2022/08/20 00:24:17;;;;;;;;;;;;;;;;;;2216622;66;1191;-55
2022/08/20 00:26:51;;;;;;;;;;;;;;;;;;2215804;66;1082;-54
2022/08/20 00:29:24;;;;;;;;;;;;;;;;;;2216692;66;1273;-54
2022/08/20 00:31:57;;;;;;;;;;;;;;;;;;2215791;66;1348;-56
2022/08/20 00:34:31;;;;;;;;;;;;;;;;;;2215792;66;1129;-54
2022/08/20 00:37:04;;;;;;;;;;;;;;;;;;2216286;59;1912;-55
2022/08/20 00:39:40;;;;;;;;;;;;;;;;;;2215452;66;1230;-54
2022/08/20 00:42:13;;;;;;;;;;;;;;;;;;2216639;66;1202;-54
2022/08/20 00:44:47;;;;;;;;;;;;;;;;;;2214756;58;1199;-55
2022/08/20 00:47:20;;;;;;;;;;;;;;;;;;2216897;66;1179;-54
2022/08/20 00:49:53;;;;;;;;;;;;;;;;;;2215098;66;1208;-55
2022/08/20 00:52:26;;;;;;;;;;;;;;;;;;2215943;59;1303;-57
2022/08/20 00:55:03;;;;;;;;;;;;;;;;;;2215655;66;1227;-54
2022/08/20 00:57:39;;;;;;;;;;;;;;;;;;2216423;66;1939;-54
2022/08/20 01:00:14;;;;;;;;;;;;;;;;;;2216151;66;1249;-56
2022/08/20 01:02:49;;;;;;;;;;;;;;;;;;2211950;59;1690;-56
2022/08/20 01:05:23;;;;;;;;;;;;;;;;;;2216611;66;1281;-55
2022/08/20 01:07:56;;;;;;;;;;;;;;;;;;2216150;59;1209;-55
2022/08/20 01:10:36;;;;;;;;;;;;;;;;;;2216457;58;1263;-53
2022/08/20 01:13:12;;;;;;;;;;;;;;;;;;2216573;66;1119;-55
2022/08/20 01:15:47;;;;;;;;;;;;;;;;;;2216548;58;1813;-54
2022/08/20 01:18:23;;;;;;;;;;;;;;;;;;2216747;59;1935;-55
2022/08/20 01:20:58;;;;;;;;;;;;;;;;;;2215804;59;1233;-54
2022/08/20 01:23:34;;;;;;;;;;;;;;;;;;2216367;66;1319;-54
2022/08/20 01:26:11;;;;;;;;;;;;;;;;;;2216115;59;1307;-54
2022/08/20 01:28:46;;;;;;;;;;;;;;;;;;2216490;66;1201;-54
2022/08/20 01:31:21;;;;;;;;;;;;;;;;;;2216743;66;1296;-54
2022/08/20 01:33:55;;;;;;;;;;;;;;;;;;2216943;59;1468;-55
2022/08/20 01:36:30;;;;;;;;;;;;;;;;;;2216922;59;1296;-56
2022/08/20 01:39:06;;;;;;;;;;;;;;;;;;2216352;66;1936;-54
2022/08/20 01:41:49;;;;;;;;;;;;;;;;;;2216930;59;1818;-54
2022/08/20 01:44:22;;;;;;;;;;;;;;;;;;2216431;59;1236;-54
2022/08/20 01:46:58;;;;;;;;;;;;;;;;;;2216601;66;1223;-54
2022/08/20 01:49:34;;;;;;;;;;;;;;;;;;2215879;58;1365;-54
2022/08/20 01:52:09;;;;;;;;;;;;;;;;;;2216782;66;1173;-55
2022/08/20 01:54:42;;;;;;;;;;;;;;;;;;2215922;66;1241;-55
2022/08/20 01:57:20;;;;;;;;;;;;;;;;;;2216769;66;1221;-55
2022/08/20 01:59:53;;;;;;;;;;;;;;;;;;2216612;59;1977;-55
2022/08/20 02:02:27;;;;;;;;;;;;;;;;;;2215654;59;1668;-55
2022/08/20 02:05:00;;;;;;;;;;;;;;;;;;2216361;59;1241;-53
2022/08/20 02:07:34;;;;;;;;;;;;;;;;;;2216396;66;1325;-54
2022/08/20 02:10:08;;;;;;;;;;;;;;;;;;2216700;59;1877;-53
2022/08/20 02:12:44;;;;;;;;;;;;;;;;;;2216203;59;1172;-55
2022/08/20 02:15:17;;;;;;;;;;;;;;;;;;2216329;66;1242;-54
2022/08/20 02:17:50;;;;;;;;;;;;;;;;;;2215621;66;1936;-56
2022/08/20 02:20:30;;;;;;;;;;;;;;;;;;2215674;66;1201;-54
2022/08/20 02:23:04;;;;;;;;;;;;;;;;;;2216573;66;1199;-54
2022/08/20 02:25:39;;;;;;;;;;;;;;;;;;2212236;59;1835;-57
2022/08/20 02:28:20;;;;;;;;;;;;;;;;;;2216471;66;1224;-55
2022/08/20 02:30:54;;;;;;;;;;;;;;;;;;2216956;66;1254;-56
2022/08/20 02:33:28;;;;;;;;;;;;;;;;;;2217377;66;1162;-54
2022/08/20 02:36:01;;;;;;;;;;;;;;;;;;2215707;59;1359;-54
2022/08/20 02:38:34;;;;;;;;;;;;;;;;;;2216761;66;1973;-54
2022/08/20 02:41:07;;;;;;;;;;;;;;;;;;2216446;58;1308;-54
2022/08/20 02:43:43;;;;;;;;;;;;;;;;;;2216711;58;1275;-54
2022/08/20 02:46:17;;;;;;;;;;;;;;;;;;2216817;66;1111;-53
2022/08/20 02:48:50;;;;;;;;;;;;;;;;;;2216492;66;1170;-55
2022/08/20 02:51:23;;;;;;;;;;;;;;;;;;2216511;66;1282;-54
2022/08/20 02:53:57;;;;;;;;;;;;;;;;;;2216229;66;1172;-54
2022/08/20 02:56:30;;;;;;;;;;;;;;;;;;2216909;66;1509;-54
2022/08/20 02:59:06;;;;;;;;;;;;;;;;;;2216604;66;1978;-54
2022/08/20 03:01:40;;;;;;;;;;;;;;;;;;2216333;59;1610;-54
2022/08/20 03:04:13;;;;;;;;;;;;;;;;;;2215577;59;1670;-56
2022/08/20 03:06:46;;;;;;;;;;;;;;;;;;2216387;58;2324;-54
2022/08/20 03:09:19;;;;;;;;;;;;;;;;;;2218590;58;1504;-54
2022/08/20 03:11:53;;;;;;;;;;;;;;;;;;2216545;59;1424;-54
2022/08/20 03:14:29;;;;;;;;;;;;;;;;;;2216629;66;1246;-54
2022/08/20 03:17:02;;;;;;;;;;;;;;;;;;2216615;59;1292;-54
2022/08/20 03:19:35;;;;;;;;;;;;;;;;;;2216754;66;1920;-54
2022/08/20 03:22:08;;;;;;;;;;;;;;;;;;2215742;66;1127;-54
2022/08/20 03:24:41;;;;;;;;;;;;;;;;;;2215628;59;1425;-54
2022/08/20 03:27:15;;;;;;;;;;;;;;;;;;2214864;66;1193;-54
2022/08/20 03:29:51;;;;;;;;;;;;;;;;;;2215162;66;1282;-56
2022/08/20 03:32:24;;;;;;;;;;;;;;;;;;2214758;66;1250;-54
2022/08/20 03:34:57;;;;;;;;;;;;;;;;;;2215064;66;1313;-54
2022/08/20 03:37:31;;;;;;;;;;;;;;;;;;2215364;59;1410;-54
2022/08/20 03:40:06;;;;;;;;;;;;;;;;;;2215394;66;1999;-54
2022/08/20 03:42:40;;;;;;;;;;;;;;;;;;2214905;59;1627;-56
2022/08/20 03:45:16;;;;;;;;;;;;;;;;;;2215231;66;1252;-54
2022/08/20 03:47:50;;;;;;;;;;;;;;;;;;2215466;66;1159;-54
2022/08/20 03:50:25;;;;;;;;;;;;;;;;;;2215094;66;1234;-54
2022/08/20 03:52:59;;;;;;;;;;;;;;;;;;2215167;66;1214;-54
2022/08/20 03:55:33;;;;;;;;;;;;;;;;;;2215438;66;1204;-54
2022/08/20 03:58:07;;;;;;;;;;;;;;;;;;2215587;66;1153;-54
2022/08/20 04:00:45;;;;;;;;;;;;;;;;;;2215555;66;1940;-54
2022/08/20 04:03:18;;;;;;;;;;;;;;;;;;2215530;58;1518;-54
2022/08/20 04:05:52;;;;;;;;;;;;;;;;;;2215750;66;1192;-54
2022/08/20 04:08:28;;;;;;;;;;;;;;;;;;2215021;66;1204;-54
2022/08/20 04:11:01;;;;;;;;;;;;;;;;;;2215365;58;1216;-55
2022/08/20 04:13:34;;;;;;;;;;;;;;;;;;2215894;66;1234;-55
2022/08/20 04:16:10;;;;;;;;;;;;;;;;;;2216518;58;1769;-54
2022/08/20 04:18:43;;;;;;;;;;;;;;;;;;2215471;66;1939;-54
2022/08/20 04:21:17;;;;;;;;;;;;;;;;;;2215939;66;1215;-54
2022/08/20 04:23:51;;;;;;;;;;;;;;;;;;2216232;66;1102;-54
2022/08/20 04:26:24;;;;;;;;;;;;;;;;;;2216025;66;1361;-53
2022/08/20 04:28:57;;;;;;;;;;;;;;;;;;2216035;66;1244;-54
2022/08/20 04:31:34;;;;;;;;;;;;;;;;;;2215659;66;1323;-54
2022/08/20 04:34:08;;;;;;;;;;;;;;;;;;2216064;66;1131;-54
2022/08/20 04:36:41;;;;;;;;;;;;;;;;;;2214226;59;1633;-54
2022/08/20 04:39:15;;;;;;;;;;;;;;;;;;2215957;66;1963;-55
2022/08/20 04:41:45;;;;;;;;;;;;;;;;;;2215308;66;1239;-54
2022/08/20 04:44:20;;;;;;;;;;;;;;;;;;2216151;59;1204;-54
2022/08/20 04:46:56;;;;;;;;;;;;;;;;;;2215702;66;1128;-54
2022/08/20 04:49:29;;;;;;;;;;;;;;;;;;2215355;66;1178;-53
2022/08/20 04:52:03;;;;;;;;;;;;;;;;;;2216399;66;1215;-54
2022/08/20 04:54:36;;;;;;;;;;;;;;;;;;2215782;66;1315;-53
2022/08/20 04:57:09;;;;;;;;;;;;;;;;;;2216055;66;1078;-54
2022/08/20 04:59:42;;;;;;;;;;;;;;;;;;2215802;66;1936;-54
2022/08/20 05:02:18;;;;;;;;;;;;;;;;;;2215426;58;1627;-55
2022/08/20 05:04:52;;;;;;;;;;;;;;;;;;2215629;59;1325;-54
2022/08/20 05:07:25;;;;;;;;;;;;;;;;;;2216642;66;1212;-53
2022/08/20 05:09:58;;;;;;;;;;;;;;;;;;2211789;59;1647;-54
2022/08/20 05:12:31;;;;;;;;;;;;;;;;;;2215492;59;1186;-54
2022/08/20 05:15:05;;;;;;;;;;;;;;;;;;2215744;58;1387;-54
2022/08/20 05:17:41;;;;;;;;;;;;;;;;;;2215750;66;1201;-55
2022/08/20 05:20:18;;;;;;;;;;;;;;;;;;2215133;66;2083;-55
2022/08/20 05:22:51;;;;;;;;;;;;;;;;;;2216113;66;1189;-54
2022/08/20 05:25:27;;;;;;;;;;;;;;;;;;2215352;66;1265;-54
2022/08/20 05:28:01;;;;;;;;;;;;;;;;;;2215791;66;1206;-54
2022/08/20 05:30:35;;;;;;;;;;;;;;;;;;2211716;66;1698;-53
2022/08/20 05:33:12;;;;;;;;;;;;;;;;;;2216375;66;1177;-54
2022/08/20 05:35:46;;;;;;;;;;;;;;;;;;2215846;58;1334;-54
2022/08/20 05:38:20;;;;;;;;;;;;;;;;;;2215776;66;1247;-54
2022/08/20 05:40:53;;;;;;;;;;;;;;;;;;2215883;58;1931;-54
2022/08/20 05:43:27;;;;;;;;;;;;;;;;;;2216844;59;1298;-53
2022/08/20 05:46:00;;;;;;;;;;;;;;;;;;2215500;66;1266;-55
2022/08/20 05:48:36;;;;;;;;;;;;;;;;;;2216283;66;1100;-54
2022/08/20 05:51:09;;;;;;;;;;;;;;;;;;2216321;66;1198;-54
2022/08/20 05:53:42;;;;;;;;;;;;;;;;;;2216026;66;1808;-55
2022/08/20 05:56:16;;;;;;;;;;;;;;;;;;2216267;66;1120;-54
2022/08/20 05:58:49;;;;;;;;;;;;;;;;;;2214877;66;1284;-54
2022/08/20 06:01:22;;;;;;;;;;;;;;;;;;2215826;59;2027;-54
2022/08/20 06:06:48;;;;;;;;;;;;;;;;;;2216711;66;1108;-54
2022/08/20 06:09:22;;;;;;;;;;;;;;;;;;2216890;66;1961;-54
2022/08/20 06:11:56;;;;;;;;;;;;;;;;;;2215356;59;1252;-54
2022/08/20 06:14:29;;;;;;;;;;;;;;;;;;2215574;66;1051;-54
2022/08/20 06:17:06;;;;;;;;;;;;;;;;;;2214877;66;1701;-55
2022/08/20 06:19:43;;;;;;;;;;;;;;;;;;2215946;66;1931;-55
2022/08/20 06:22:16;;;;;;;;;;;;;;;;;;2216052;66;1187;-57
2022/08/20 06:24:50;;;;;;;;;;;;;;;;;;2215833;59;2119;-55
2022/08/20 06:27:23;;;;;;;;;;;;;;;;;;2217098;66;1239;-55
2022/08/20 06:29:56;;;;;;;;;;;;;;;;;;2215858;66;1276;-54
2022/08/20 06:32:29;;;;;;;;;;;;;;;;;;2216780;66;1105;-54
2022/08/20 06:35:07;;;;;;;;;;;;;;;;;;2215113;66;1121;-55
2022/08/20 06:37:41;;;;;;;;;;;;;;;;;;2215546;59;1647;-55
2022/08/20 06:40:16;;;;;;;;;;;;;;;;;;2216634;58;1920;-55
2022/08/20 06:42:50;;;;;;;;;;;;;;;;;;2215888;58;1234;-55
2022/08/20 06:45:25;;;;;;;;;;;;;;;;;;2216579;66;1213;-55
2022/08/20 06:48:00;;;;;;;;;;;;;;;;;;2215817;59;5191;-55
2022/08/20 06:50:38;;;;;;;;;;;;;;;;;;2215842;66;1226;-55
2022/08/20 06:53:12;;;;;;;;;;;;;;;;;;2216933;66;1140;-55
2022/08/20 06:55:47;;;;;;;;;;;;;;;;;;2216518;66;1186;-55
2022/08/20 06:58:21;;;;;;;;;;;;;;;;;;2216631;66;1238;-56
2022/08/20 07:00:54;;;;;;;;;;;;;;;;;;2215677;66;2027;-55
2022/08/20 07:03:27;;;;;;;;;;;;;;;;;;2216289;59;1617;-58
2022/08/20 07:06:03;;;;;;;;;;;;;;;;;;2216421;66;1258;-56
2022/08/20 07:08:37;;;;;;;;;;;;;;;;;;2213877;66;1617;-55
2022/08/20 07:11:10;;;;;;;;;;;;;;;;;;2216049;58;1505;-56
2022/08/20 07:13:44;;;;;;;;;;;;;;;;;;2217470;66;1210;-55
2022/08/20 07:16:17;;;;;;;;;;;;;;;;;;2216270;59;1381;-55
2022/08/20 07:18:50;;;;;;;;;;;;;;;;;;2215560;66;1272;-56
2022/08/20 07:21:26;;;;;;;;;;;;;;;;;;2216923;66;1930;-56
2022/08/20 07:24:00;;;;;;;;;;;;;;;;;;2215454;66;1362;-55
2022/08/20 07:26:33;;;;;;;;;;;;;;;;;;2216984;66;1118;-55
2022/08/20 07:29:06;;;;;;;;;;;;;;;;;;2216176;66;1149;-56
2022/08/20 07:34:30;;;;;;;;;;;;;;;;;;2217131;66;1201;-57
2022/08/20 07:37:06;;;;;;;;;;;;;;;;;;2216833;59;1390;-57
2022/08/20 07:42:30;;;;;;;;;;;;;;;;;;2273545;53;2287;-67
2022/08/20 07:45:03;;;;;;;;;;;;;;;;;;2218013;58;1344;-67
2022/08/20 07:47:36;;;;;;;;;;;;;;;;;;2218376;58;1453;-67
2022/08/20 07:50:10;;;;;;;;;;;;;;;;;;2217999;58;1246;-67
2022/08/20 07:52:46;;;;;;;;;;;;;;;;;;2217804;66;1067;-67
2022/08/20 07:55:19;;;;;;;;;;;;;;;;;;2218222;66;1216;-67
2022/08/20 07:57:53;;;;;;;;;;;;;;;;;;2218619;59;1170;-67
2022/08/20 08:00:27;;;;;;;;;;;;;;;;;;2218121;66;1929;-67
2022/08/20 08:03:00;;;;;;;;;;;;;;;;;;2217417;58;1567;-67
2022/08/20 08:05:34;;;;;;;;;;;;;;;;;;2218236;66;1114;-67
2022/08/20 08:08:18;;;;;;;;;;;;;;;;;;2218065;66;1186;-67
2022/08/20 08:10:54;;;;;;;;;;;;;;;;;;2217667;58;1313;-67
2022/08/20 08:13:28;;;;;;;;;;;;;;;;;;2219124;66;1115;-67
2022/08/20 08:16:01;;;;;;;;;;;;;;;;;;2217892;59;1274;-67
2022/08/20 08:18:37;;;;;;;;;;;;;;;;;;2217972;66;1235;-67
2022/08/20 08:21:11;;;;;;;;;;;;;;;;;;2217821;66;1925;-66
2022/08/20 08:23:47;;;;;;;;;;;;;;;;;;2218151;66;1239;-67
2022/08/20 08:26:21;;;;;;;;;;;;;;;;;;2218411;66;1115;-64
2022/08/20 08:28:54;;;;;;;;;;;;;;;;;;2217929;66;1172;-67
2022/08/20 08:31:27;;;;;;;;;;;;;;;;;;2218231;66;1290;-67
2022/08/20 08:34:00;;;;;;;;;;;;;;;;;;2217128;58;1779;-67
2022/08/20 08:36:33;;;;;;;;;;;;;;;;;;2218017;59;1334;-67
2022/08/20 08:39:10;;;;;;;;;;;;;;;;;;2217526;66;1024;-65
2022/08/20 08:41:46;;;;;;;;;;;;;;;;;;2217764;66;1935;-66
2022/08/20 08:44:23;;;;;;;;;;;;;;;;;;2217958;58;1266;-67
2022/08/20 08:46:58;;;;;;;;;;;;;;;;;;2217488;66;1168;-66
2022/08/20 08:49:34;;;;;;;;;;;;;;;;;;2217236;66;1245;-67
2022/08/20 08:52:10;;;;;;;;;;;;;;;;;;2217097;66;1274;-67
2022/08/20 08:54:48;;;;;;;;;;;;;;;;;;2218030;66;1232;-67
2022/08/20 08:57:22;;;;;;;;;;;;;;;;;;2218499;66;1338;-67
2022/08/20 08:59:56;;;;;;;;;;;;;;;;;;2217687;66;1266;-66
2022/08/20 09:02:32;;;;;;;;;;;;;;;;;;2216851;58;1932;-67
2022/08/20 09:05:14;;;;;;;;;;;;;;;;;;2217753;66;1090;-66
2022/08/20 09:07:50;;;;;;;;;;;;;;;;;;2217894;66;1154;-67
2022/08/20 09:10:26;;;;;;;;;;;;;;;;;;2218517;58;1222;-67
2022/08/20 09:13:02;;;;;;;;;;;;;;;;;;2217506;59;1203;-65
2022/08/20 09:15:35;;;;;;;;;;;;;;;;;;2217290;59;1268;-64
2022/08/20 09:18:09;;;;;;;;;;;;;;;;;;2217852;66;1190;-66
2022/08/20 09:20:42;;;;;;;;;;;;;;;;;;2217665;66;1933;-67
2022/08/20 09:23:15;;;;;;;;;;;;;;;;;;2217389;66;1139;-67
2022/08/20 09:25:51;;;;;;;;;;;;;;;;;;2218084;66;1100;-67
2022/08/20 09:28:24;;;;;;;;;;;;;;;;;;2218077;66;1257;-66
2022/08/20 09:30:57;;;;;;;;;;;;;;;;;;2217638;66;1306;-67
2022/08/20 09:33:30;;;;;;;;;;;;;;;;;;2218566;66;1208;-66
2022/08/20 09:36:03;;;;;;;;;;;;;;;;;;2217724;59;1448;-66
2022/08/20 09:38:36;;;;;;;;;;;;;;;;;;2218046;66;1088;-67
2022/08/20 09:41:12;;;;;;;;;;;;;;;;;;2217549;59;1931;-67
2022/08/20 09:43:45;;;;;;;;;;;;;;;;;;2218010;58;1282;-65
2022/08/20 09:46:19;;;;;;;;;;;;;;;;;;2217985;66;1265;-67
2022/08/20 09:48:52;;;;;;;;;;;;;;;;;;2217640;59;1235;-66
2022/08/20 09:51:25;;;;;;;;;;;;;;;;;;2217641;66;1297;-66
2022/08/20 09:53:58;;;;;;;;;;;;;;;;;;2217409;66;1305;-65
2022/08/20 09:56:35;;;;;;;;;;;;;;;;;;2218310;66;1263;-67
2022/08/20 09:59:08;;;;;;;;;;;;;;;;;;2217702;66;1129;-66
2022/08/20 10:01:41;;;;;;;;;;;;;;;;;;2216683;59;1925;-67
2022/08/20 10:04:14;;;;;;;;;;;;;;;;;;2217845;58;1597;-67
2022/08/20 10:06:47;;;;;;;;;;;;;;;;;;2217502;66;1080;-67
2022/08/20 10:09:21;;;;;;;;;;;;;;;;;;2217757;58;1314;-67
2022/08/20 10:11:56;;;;;;;;;;;;;;;;;;2217571;59;1255;-65
2022/08/20 10:14:30;;;;;;;;;;;;;;;;;;2217855;66;1208;-67
2022/08/20 10:17:03;;;;;;;;;;;;;;;;;;2217209;58;1209;-65
2022/08/20 10:19:36;;;;;;;;;;;;;;;;;;2217731;66;1293;-67
2022/08/20 10:22:10;;;;;;;;;;;;;;;;;;2215829;58;2063;-67
2022/08/20 10:24:44;;;;;;;;;;;;;;;;;;2217393;66;1114;-65
2022/08/20 10:27:20;;;;;;;;;;;;;;;;;;2217943;66;1213;-66
2022/08/20 10:29:53;;;;;;;;;;;;;;;;;;2217408;66;1296;-68
2022/08/20 10:32:26;;;;;;;;;;;;;;;;;;2218246;66;1278;-67
2022/08/20 10:34:59;;;;;;;;;;;;;;;;;;2217639;66;1225;-67
2022/08/20 10:37:33;;;;;;;;;;;;;;;;;;2217848;59;1314;-65
2022/08/20 10:40:07;;;;;;;;;;;;;;;;;;2217557;66;1213;-67
2022/08/20 10:42:43;;;;;;;;;;;;;;;;;;2218031;58;1937;-66
2022/08/20 10:45:17;;;;;;;;;;;;;;;;;;2218044;66;1184;-67
2022/08/20 10:47:50;;;;;;;;;;;;;;;;;;2217598;66;1640;-67
2022/08/20 10:50:23;;;;;;;;;;;;;;;;;;2217929;66;1305;-66
2022/08/20 10:52:56;;;;;;;;;;;;;;;;;;2217908;66;1099;-67
2022/08/20 10:55:30;;;;;;;;;;;;;;;;;;2218073;66;1148;-66
2022/08/20 10:58:06;;;;;;;;;;;;;;;;;;2217923;66;1223;-67
2022/08/20 11:00:39;;;;;;;;;;;;;;;;;;2217791;66;1286;-65
2022/08/20 11:03:12;;;;;;;;;;;;;;;;;;2218017;58;1916;-66
2022/08/20 11:05:45;;;;;;;;;;;;;;;;;;2218095;66;1251;-67
2022/08/20 11:08:19;;;;;;;;;;;;;;;;;;2218524;66;1164;-67
2022/08/20 11:10:52;;;;;;;;;;;;;;;;;;2217579;59;1967;-67
2022/08/20 11:13:28;;;;;;;;;;;;;;;;;;2217908;66;1302;-66
2022/08/20 11:16:02;;;;;;;;;;;;;;;;;;2218232;58;1286;-67
2022/08/20 11:18:35;;;;;;;;;;;;;;;;;;2217888;66;1211;-67
2022/08/20 11:21:09;;;;;;;;;;;;;;;;;;2217894;66;1932;-67
2022/08/20 11:23:42;;;;;;;;;;;;;;;;;;2218393;66;1315;-67
2022/08/20 11:26:20;;;;;;;;;;;;;;;;;;2218484;66;1090;-68
2022/08/20 11:28:56;;;;;;;;;;;;;;;;;;2218346;66;1143;-68
2022/08/20 11:31:29;;;;;;;;;;;;;;;;;;2218654;66;1248;-67
2022/08/20 11:34:02;;;;;;;;;;;;;;;;;;2215143;66;1447;-67
2022/08/20 11:36:36;;;;;;;;;;;;;;;;;;2218510;59;1332;-67
2022/08/20 11:39:09;;;;;;;;;;;;;;;;;;2218420;66;1109;-67
2022/08/20 11:41:42;;;;;;;;;;;;;;;;;;2217231;59;1937;-67
2022/08/20 11:44:18;;;;;;;;;;;;;;;;;;2217841;58;1350;-67
2022/08/20 11:46:51;;;;;;;;;;;;;;;;;;2217830;66;1199;-67
2022/08/20 11:49:24;;;;;;;;;;;;;;;;;;2217475;58;1710;-67
2022/08/20 11:51:57;;;;;;;;;;;;;;;;;;2217021;66;1217;-67
2022/08/20 11:54:31;;;;;;;;;;;;;;;;;;2217456;66;1253;-67
2022/08/20 11:57:04;;;;;;;;;;;;;;;;;;2217986;59;1305;-66
2022/08/20 11:59:40;;;;;;;;;;;;;;;;;;2217635;66;1094;-67
2022/08/20 12:02:13;;;;;;;;;;;;;;;;;;2216778;58;1929;-66
2022/08/20 12:04:46;;;;;;;;;;;;;;;;;;2217443;59;1283;-67
2022/08/20 12:07:21;;;;;;;;;;;;;;;;;;2218204;66;1260;-66
2022/08/20 12:09:54;;;;;;;;;;;;;;;;;;2217702;58;1271;-67
2022/08/20 12:12:28;;;;;;;;;;;;;;;;;;2217881;59;1227;-67
2022/08/20 12:15:04;;;;;;;;;;;;;;;;;;2217859;66;1147;-66
2022/08/20 12:17:38;;;;;;;;;;;;;;;;;;2217201;66;1118;-66
2022/08/20 12:20:14;;;;;;;;;;;;;;;;;;2217454;66;1250;-67
2022/08/20 12:22:47;;;;;;;;;;;;;;;;;;2217818;66;1935;-67
2022/08/20 12:25:20;;;;;;;;;;;;;;;;;;2217947;66;1239;-67
2022/08/20 12:27:53;;;;;;;;;;;;;;;;;;2217362;66;1106;-67
2022/08/20 12:30:29;;;;;;;;;;;;;;;;;;2217871;66;1301;-67
2022/08/20 12:33:02;;;;;;;;;;;;;;;;;;2218161;58;1202;-67
2022/08/20 12:35:36;;;;;;;;;;;;;;;;;;2217665;58;1381;-67
2022/08/20 12:38:09;;;;;;;;;;;;;;;;;;2217885;58;1756;-67
2022/08/20 12:40:42;;;;;;;;;;;;;;;;;;2217008;66;1184;-66
2022/08/20 12:43:15;;;;;;;;;;;;;;;;;;2217820;58;1931;-67
2022/08/20 12:45:51;;;;;;;;;;;;;;;;;;2217379;66;1253;-66
2022/08/20 12:48:24;;;;;;;;;;;;;;;;;;2217840;66;1231;-66
2022/08/20 12:50:57;;;;;;;;;;;;;;;;;;2217285;66;1249;-66
2022/08/20 12:53:30;;;;;;;;;;;;;;;;;;2217252;66;1129;-67
2022/08/20 12:56:05;;;;;;;;;;;;;;;;;;2217781;66;1190;-67
2022/08/20 12:58:38;;;;;;;;;;;;;;;;;;2217977;66;1016;-66
2022/08/20 13:01:15;;;;;;;;;;;;;;;;;;2218009;66;1277;-66
2022/08/20 13:03:48;;;;;;;;;;;;;;;;;;2217226;58;2000;-67
2022/08/20 13:06:22;;;;;;;;;;;;;;;;;;2218076;66;1203;-67
2022/08/20 13:08:55;;;;;;;;;;;;;;;;;;2218431;66;1317;-66
2022/08/20 13:11:28;;;;;;;;;;;;;;;;;;2217833;59;1148;-67
2022/08/20 13:14:01;;;;;;;;;;;;;;;;;;2217731;66;1273;-67
2022/08/20 13:16:37;;;;;;;;;;;;;;;;;;2217381;59;1282;-67
2022/08/20 13:19:11;;;;;;;;;;;;;;;;;;2217828;66;1121;-67
2022/08/20 13:21:44;;;;;;;;;;;;;;;;;;2217581;66;1971;-66
2022/08/20 13:24:17;;;;;;;;;;;;;;;;;;2216822;58;1677;-66
2022/08/20 13:26:51;;;;;;;;;;;;;;;;;;2217599;66;1221;-64
2022/08/20 13:29:24;;;;;;;;;;;;;;;;;;2217204;66;1290;-65
2022/08/20 13:32:00;;;;;;;;;;;;;;;;;;2217883;66;1234;-65
2022/08/20 13:34:33;;;;;;;;;;;;;;;;;;2216741;58;1974;-66
2022/08/20 13:37:13;;;;;;;;;;;;;;;;;;2216828;59;1425;-64
2022/08/20 13:39:46;;;;;;;;;;;;;;;;;;2217305;66;1198;-65
2022/08/20 13:53:03;;;;;;;;;;;;;;;;;;2261251;53;2128;-54
2022/08/20 13:55:36;;;;;;;;;;;;;;;;;;2216867;58;1155;-55
2022/08/20 13:58:09;;;;;;;;;;;;;;;;;;2217660;58;1245;-53
2022/08/20 14:00:42;;;;;;;;;;;;;;;;;;2217218;66;1197;-54
2022/08/20 14:03:15;;;;;;;;;;;;;;;;;;2217006;58;1983;-53
2022/08/20 14:05:49;;;;;;;;;;;;;;;;;;2216676;66;1207;-54
2022/08/20 14:08:25;;;;;;;;;;;;;;;;;;2216084;66;1221;-56
2022/08/20 14:10:58;;;;;;;;;;;;;;;;;;2217132;58;1310;-54
2022/08/20 14:13:32;;;;;;;;;;;;;;;;;;2216780;66;1099;-54
2022/08/20 14:16:05;;;;;;;;;;;;;;;;;;2216832;66;1041;-54
2022/08/20 14:18:38;;;;;;;;;;;;;;;;;;2216667;66;1280;-54
2022/08/20 14:21:11;;;;;;;;;;;;;;;;;;2216780;66;1241;-55
2022/08/20 14:23:47;;;;;;;;;;;;;;;;;;2216187;66;1988;-54
2022/08/20 14:26:20;;;;;;;;;;;;;;;;;;2217642;58;1132;-54
2022/08/20 14:28:53;;;;;;;;;;;;;;;;;;2217436;66;1023;-54
2022/08/20 14:31:26;;;;;;;;;;;;;;;;;;2217439;66;1342;-55
2022/08/20 14:33:59;;;;;;;;;;;;;;;;;;2216685;66;1076;-54
2022/08/20 14:36:33;;;;;;;;;;;;;;;;;;2217906;58;1338;-56
2022/08/20 14:39:09;;;;;;;;;;;;;;;;;;2218383;66;1099;-57
2022/08/20 14:41:42;;;;;;;;;;;;;;;;;;2218080;66;1293;-54
2022/08/20 14:44:15;;;;;;;;;;;;;;;;;;2217169;58;1925;-57
2022/08/20 14:46:48;;;;;;;;;;;;;;;;;;2217441;66;1219;-54
2022/08/20 14:49:21;;;;;;;;;;;;;;;;;;2216827;58;1736;-54
2022/08/20 14:51:54;;;;;;;;;;;;;;;;;;2217700;58;1219;-54
2022/08/20 14:54:30;;;;;;;;;;;;;;;;;;2217288;66;1179;-55
2022/08/20 14:57:03;;;;;;;;;;;;;;;;;;2216927;58;1504;-54
2022/08/20 14:59:36;;;;;;;;;;;;;;;;;;2216781;58;1697;-54
2022/08/20 15:02:11;;;;;;;;;;;;;;;;;;2217400;58;1635;-54
2022/08/20 15:04:45;;;;;;;;;;;;;;;;;;2216652;59;1932;-54
2022/08/20 15:07:23;;;;;;;;;;;;;;;;;;2217685;59;1640;-54
2022/08/20 15:09:59;;;;;;;;;;;;;;;;;;2216769;58;1324;-55
2022/08/20 15:12:34;;;;;;;;;;;;;;;;;;2216494;58;1211;-55
2022/08/20 15:15:08;;;;;;;;;;;;;;;;;;2217426;58;1270;-54
2022/08/20 15:17:44;;;;;;;;;;;;;;;;;;2218167;66;1073;-54
2022/08/20 15:20:18;;;;;;;;;;;;;;;;;;2217772;66;1258;-55
2022/08/20 15:22:51;;;;;;;;;;;;;;;;;;2216832;66;1996;-57
2022/08/20 15:25:28;;;;;;;;;;;;;;;;;;2217861;66;1261;-56
2022/08/20 15:28:03;;;;;;;;;;;;;;;;;;2217119;66;1175;-55
2022/08/20 15:30:37;;;;;;;;;;;;;;;;;;2217389;58;1352;-54
2022/08/20 15:33:10;;;;;;;;;;;;;;;;;;2217250;66;1185;-56
2022/08/20 15:35:43;;;;;;;;;;;;;;;;;;2217309;66;1068;-54
2022/08/20 15:38:16;;;;;;;;;;;;;;;;;;2217924;66;1189;-54
2022/08/20 15:40:52;;;;;;;;;;;;;;;;;;2217161;66;1113;-54
2022/08/20 15:43:25;;;;;;;;;;;;;;;;;;2217692;58;1979;-54
2022/08/20 15:45:59;;;;;;;;;;;;;;;;;;2217287;66;1134;-54
2022/08/20 15:48:35;;;;;;;;;;;;;;;;;;2217568;58;1733;-54
2022/08/20 15:51:18;;;;;;;;;;;;;;;;;;2216964;66;1194;-55
2022/08/20 15:53:57;;;;;;;;;;;;;;;;;;2216742;66;1076;-55
2022/08/20 15:56:41;;;;;;;;;;;;;;;;;;2218128;66;1317;-55
2022/08/20 15:59:20;;;;;;;;;;;;;;;;;;2217499;66;1179;-55
2022/08/20 16:02:10;;;;;;;;;;;;;;;;;;2217192;58;1512;-54
2022/08/20 16:04:54;;;;;;;;;;;;;;;;;;2217891;58;1990;-54
2022/08/20 16:07:35;;;;;;;;;;;;;;;;;;2217886;66;1308;-54
2022/08/20 16:10:13;;;;;;;;;;;;;;;;;;2217169;66;1149;-54
2022/08/20 16:12:53;;;;;;;;;;;;;;;;;;2217445;66;1250;-54
2022/08/20 16:15:29;;;;;;;;;;;;;;;;;;2217874;66;1182;-53
2022/08/20 16:18:07;;;;;;;;;;;;;;;;;;2216893;66;1218;-54
2022/08/20 16:20:42;;;;;;;;;;;;;;;;;;2216872;66;1235;-60
2022/08/20 16:23:17;;;;;;;;;;;;;;;;;;2216578;66;1902;-54
2022/08/20 16:25:58;;;;;;;;;;;;;;;;;;2217206;66;1142;-56
2022/08/20 16:28:41;;;;;;;;;;;;;;;;;;2217384;66;1367;-54
2022/08/20 16:31:17;;;;;;;;;;;;;;;;;;2217078;66;1215;-54
2022/08/20 16:33:55;;;;;;;;;;;;;;;;;;2217214;66;1333;-56
2022/08/20 16:36:31;;;;;;;;;;;;;;;;;;2217939;58;1836;-55
2022/08/20 16:39:07;;;;;;;;;;;;;;;;;;2216093;66;1229;-54
2022/08/20 16:41:41;;;;;;;;;;;;;;;;;;2217356;66;1294;-54
2022/08/20 16:44:23;;;;;;;;;;;;;;;;;;2216998;58;1941;-54
2022/08/20 16:46:59;;;;;;;;;;;;;;;;;;2216870;66;1169;-54
2022/08/20 16:49:32;;;;;;;;;;;;;;;;;;2217917;66;1233;-55
2022/08/20 16:52:06;;;;;;;;;;;;;;;;;;2216313;59;1184;-54
2022/08/20 16:54:44;;;;;;;;;;;;;;;;;;2216605;66;1170;-54
2022/08/20 16:57:17;;;;;;;;;;;;;;;;;;2217164;66;1211;-57
2022/08/20 17:00:06;;;;;;;;;;;;;;;;;;2216106;66;1103;-54
2022/08/20 17:02:50;;;;;;;;;;;;;;;;;;2217054;58;1588;-54
2022/08/20 17:05:24;;;;;;;;;;;;;;;;;;2216912;66;1920;-57
2022/08/20 17:08:02;;;;;;;;;;;;;;;;;;2216049;66;1252;-56
2022/08/20 17:10:36;;;;;;;;;;;;;;;;;;2217547;58;1314;-54
2022/08/20 17:13:22;;;;;;;;;;;;;;;;;;2216685;66;1207;-56
2022/08/20 17:15:59;;;;;;;;;;;;;;;;;;2216887;58;1890;-54
2022/08/20 17:18:33;;;;;;;;;;;;;;;;;;2218138;66;1216;-56
2022/08/20 17:21:07;;;;;;;;;;;;;;;;;;2216643;66;1257;-54
2022/08/20 17:23:43;;;;;;;;;;;;;;;;;;2216120;66;1945;-54
2022/08/20 17:26:20;;;;;;;;;;;;;;;;;;2217197;66;1071;-54
2022/08/20 17:28:54;;;;;;;;;;;;;;;;;;2217182;66;1135;-54
2022/08/20 17:31:39;;;;;;;;;;;;;;;;;;2216035;66;1307;-54
2022/08/20 17:34:16;;;;;;;;;;;;;;;;;;2216793;66;1152;-54
2022/08/20 17:36:51;;;;;;;;;;;;;;;;;;2217078;58;1327;-55
2022/08/20 17:39:25;;;;;;;;;;;;;;;;;;2216817;66;1206;-54
2022/08/20 17:42:05;;;;;;;;;;;;;;;;;;2216840;66;1178;-54
2022/08/20 17:44:42;;;;;;;;;;;;;;;;;;2216882;58;1994;-54
2022/08/20 17:47:19;;;;;;;;;;;;;;;;;;2217528;66;1255;-54
2022/08/20 17:49:53;;;;;;;;;;;;;;;;;;2216203;66;1229;-54
2022/08/20 17:52:28;;;;;;;;;;;;;;;;;;2217463;58;1271;-54
2022/08/20 17:55:03;;;;;;;;;;;;;;;;;;2217081;66;1238;-54
2022/08/20 17:57:38;;;;;;;;;;;;;;;;;;2216982;66;1091;-54
2022/08/20 18:00:15;;;;;;;;;;;;;;;;;;2215859;66;1243;-56
2022/08/20 18:02:52;;;;;;;;;;;;;;;;;;2215840;58;1500;-54
2022/08/20 18:05:25;;;;;;;;;;;;;;;;;;2217306;66;1929;-62
2022/08/20 18:08:08;;;;;;;;;;;;;;;;;;2216403;66;1137;-54
2022/08/20 18:10:57;;;;;;;;;;;;;;;;;;2217020;58;1323;-54
2022/08/20 18:13:42;;;;;;;;;;;;;;;;;;2216788;58;1139;-54